sensor_id;sensor_type;location;lat;lon;timestamp;P1;durP1;ratioP1;P2;durP2;ratioP2
75890;SDS011;64571;47.512;19.054;2022-10-23T00:00:26;45.58;;;25.25;;
75890;SDS011;64571;47.512;19.054;2022-10-23T00:03:29;39.37;;;24.17;;
75890;SDS011;64571;47.512;19.054;2022-10-23T00:06:31;39.65;;;23.50;;
75890;SDS011;64571;47.512;19.054;2022-10-23T00:09:35;43.08;;;24.02;;
75890;SDS011;64571;47.512;19.054;2022-10-23T00:12:37;41.72;;;24.17;;
75890;SDS011;64571;47.512;19.054;2022-10-23T00:15:40;40.80;;;24.45;;
75890;SDS011;64571;47.512;19.054;2022-10-23T00:18:43;40.07;;;24.57;;
75890;SDS011;64571;47.512;19.054;2022-10-23T00:21:46;41.03;;;22.75;;
75890;SDS011;64571;47.512;19.054;2022-10-23T00:24:49;40.60;;;23.55;;
75890;SDS011;64571;47.512;19.054;2022-10-23T00:27:51;38.80;;;23.90;;
75890;SDS011;64571;47.512;19.054;2022-10-23T00:30:54;37.72;;;22.48;;
75890;SDS011;64571;47.512;19.054;2022-10-23T00:33:57;40.17;;;24.10;;
75890;SDS011;64571;47.512;19.054;2022-10-23T00:37:00;38.80;;;22.98;;
75890;SDS011;64571;47.512;19.054;2022-10-23T00:40:03;43.03;;;25.65;;
75890;SDS011;64571;47.512;19.054;2022-10-23T00:43:06;43.13;;;24.05;;
75890;SDS011;64571;47.512;19.054;2022-10-23T00:46:15;42.45;;;24.00;;
75890;SDS011;64571;47.512;19.054;2022-10-23T00:49:17;37.67;;;23.63;;
75890;SDS011;64571;47.512;19.054;2022-10-23T00:52:21;43.60;;;26.58;;
75890;SDS011;64571;47.512;19.054;2022-10-23T00:55:23;43.60;;;24.92;;
75890;SDS011;64571;47.512;19.054;2022-10-23T00:58:27;38.85;;;23.12;;
75890;SDS011;64571;47.512;19.054;2022-10-23T01:01:30;39.63;;;23.20;;
75890;SDS011;64571;47.512;19.054;2022-10-23T01:04:33;38.70;;;23.33;;
75890;SDS011;64571;47.512;19.054;2022-10-23T01:07:49;42.40;;;23.30;;
75890;SDS011;64571;47.512;19.054;2022-10-23T01:10:59;42.42;;;23.15;;
75890;SDS011;64571;47.512;19.054;2022-10-23T01:14:28;39.92;;;23.48;;
75890;SDS011;64571;47.512;19.054;2022-10-23T01:21:08;40.63;;;24.37;;
75890;SDS011;64571;47.512;19.054;2022-10-23T01:25:06;41.28;;;23.87;;
75890;SDS011;64571;47.512;19.054;2022-10-23T01:27:50;42.62;;;24.98;;
75890;SDS011;64571;47.512;19.054;2022-10-23T01:30:58;39.60;;;23.73;;
75890;SDS011;64571;47.512;19.054;2022-10-23T01:34:24;40.72;;;24.40;;
75890;SDS011;64571;47.512;19.054;2022-10-23T01:37:44;36.27;;;21.47;;
75890;SDS011;64571;47.512;19.054;2022-10-23T01:41:01;41.25;;;22.80;;
75890;SDS011;64571;47.512;19.054;2022-10-23T01:44:15;35.58;;;22.42;;
75890;SDS011;64571;47.512;19.054;2022-10-23T01:47:21;37.72;;;21.67;;
75890;SDS011;64571;47.512;19.054;2022-10-23T01:50:29;39.72;;;22.37;;
75890;SDS011;64571;47.512;19.054;2022-10-23T01:53:33;37.77;;;21.73;;
75890;SDS011;64571;47.512;19.054;2022-10-23T01:56:43;41.63;;;22.37;;
75890;SDS011;64571;47.512;19.054;2022-10-23T01:59:50;34.40;;;20.62;;
75890;SDS011;64571;47.512;19.054;2022-10-23T02:02:56;36.60;;;21.35;;
75890;SDS011;64571;47.512;19.054;2022-10-23T02:06:00;38.08;;;21.83;;
75890;SDS011;64571;47.512;19.054;2022-10-23T02:09:03;36.93;;;21.20;;
75890;SDS011;64571;47.512;19.054;2022-10-23T02:12:08;40.58;;;22.75;;
75890;SDS011;64571;47.512;19.054;2022-10-23T02:18:50;36.55;;;21.60;;
75890;SDS011;64571;47.512;19.054;2022-10-23T02:25:17;40.87;;;22.77;;
75890;SDS011;64571;47.512;19.054;2022-10-23T02:28:26;39.15;;;22.90;;
75890;SDS011;64571;47.512;19.054;2022-10-23T02:31:36;40.85;;;24.10;;
75890;SDS011;64571;47.512;19.054;2022-10-23T02:34:38;38.03;;;22.55;;
75890;SDS011;64571;47.512;19.054;2022-10-23T02:37:50;38.00;;;22.60;;
75890;SDS011;64571;47.512;19.054;2022-10-23T02:40:57;39.87;;;21.67;;
75890;SDS011;64571;47.512;19.054;2022-10-23T02:48:12;36.25;;;22.15;;
75890;SDS011;64571;47.512;19.054;2022-10-23T02:51:22;40.97;;;21.02;;
75890;SDS011;64571;47.512;19.054;2022-10-23T03:01:15;37.90;;;22.58;;
75890;SDS011;64571;47.512;19.054;2022-10-23T03:04:22;36.97;;;21.48;;
75890;SDS011;64571;47.512;19.054;2022-10-23T03:07:27;39.33;;;22.80;;
75890;SDS011;64571;47.512;19.054;2022-10-23T03:10:35;38.00;;;22.48;;
75890;SDS011;64571;47.512;19.054;2022-10-23T03:13:39;36.23;;;21.07;;
75890;SDS011;64571;47.512;19.054;2022-10-23T03:16:42;37.55;;;20.98;;
75890;SDS011;64571;47.512;19.054;2022-10-23T03:19:44;35.78;;;20.83;;
75890;SDS011;64571;47.512;19.054;2022-10-23T03:22:48;36.83;;;20.50;;
75890;SDS011;64571;47.512;19.054;2022-10-23T03:25:51;35.97;;;21.95;;
75890;SDS011;64571;47.512;19.054;2022-10-23T03:28:58;37.90;;;20.20;;
75890;SDS011;64571;47.512;19.054;2022-10-23T03:32:01;35.80;;;21.25;;
75890;SDS011;64571;47.512;19.054;2022-10-23T03:35:03;39.22;;;22.08;;
75890;SDS011;64571;47.512;19.054;2022-10-23T03:38:06;36.17;;;20.25;;
75890;SDS011;64571;47.512;19.054;2022-10-23T03:41:09;32.83;;;19.73;;
75890;SDS011;64571;47.512;19.054;2022-10-23T03:44:11;33.67;;;19.13;;
75890;SDS011;64571;47.512;19.054;2022-10-23T03:47:17;36.10;;;20.20;;
75890;SDS011;64571;47.512;19.054;2022-10-23T03:50:20;38.42;;;21.40;;
75890;SDS011;64571;47.512;19.054;2022-10-23T03:53:22;33.78;;;20.20;;
75890;SDS011;64571;47.512;19.054;2022-10-23T03:56:25;33.08;;;19.23;;
75890;SDS011;64571;47.512;19.054;2022-10-23T03:59:27;32.03;;;20.20;;
75890;SDS011;64571;47.512;19.054;2022-10-23T04:02:32;32.97;;;19.60;;
75890;SDS011;64571;47.512;19.054;2022-10-23T04:05:34;35.25;;;20.00;;
75890;SDS011;64571;47.512;19.054;2022-10-23T04:08:37;37.10;;;20.55;;
75890;SDS011;64571;47.512;19.054;2022-10-23T04:11:42;33.67;;;20.60;;
75890;SDS011;64571;47.512;19.054;2022-10-23T04:14:44;34.23;;;19.47;;
75890;SDS011;64571;47.512;19.054;2022-10-23T04:17:47;34.58;;;20.02;;
75890;SDS011;64571;47.512;19.054;2022-10-23T04:20:49;37.28;;;20.75;;
75890;SDS011;64571;47.512;19.054;2022-10-23T04:23:52;33.03;;;19.55;;
75890;SDS011;64571;47.512;19.054;2022-10-23T04:26:56;31.98;;;19.67;;
75890;SDS011;64571;47.512;19.054;2022-10-23T04:30:00;35.00;;;19.53;;
75890;SDS011;64571;47.512;19.054;2022-10-23T04:33:04;37.08;;;20.95;;
75890;SDS011;64571;47.512;19.054;2022-10-23T04:36:08;36.88;;;21.05;;
75890;SDS011;64571;47.512;19.054;2022-10-23T04:39:10;33.88;;;19.52;;
75890;SDS011;64571;47.512;19.054;2022-10-23T04:42:14;37.42;;;21.10;;
75890;SDS011;64571;47.512;19.054;2022-10-23T04:45:16;37.47;;;20.93;;
75890;SDS011;64571;47.512;19.054;2022-10-23T04:48:19;36.85;;;20.45;;
75890;SDS011;64571;47.512;19.054;2022-10-23T04:51:26;34.88;;;21.23;;
75890;SDS011;64571;47.512;19.054;2022-10-23T04:54:36;34.33;;;19.73;;
75890;SDS011;64571;47.512;19.054;2022-10-23T04:57:39;37.53;;;21.80;;
75890;SDS011;64571;47.512;19.054;2022-10-23T05:00:43;36.30;;;21.37;;
75890;SDS011;64571;47.512;19.054;2022-10-23T05:03:49;38.13;;;20.52;;
75890;SDS011;64571;47.512;19.054;2022-10-23T05:06:52;35.00;;;19.77;;
75890;SDS011;64571;47.512;19.054;2022-10-23T05:09:55;36.83;;;20.77;;
75890;SDS011;64571;47.512;19.054;2022-10-23T05:12:58;37.55;;;20.42;;
75890;SDS011;64571;47.512;19.054;2022-10-23T05:16:00;34.10;;;19.73;;
75890;SDS011;64571;47.512;19.054;2022-10-23T05:19:03;32.67;;;20.55;;
75890;SDS011;64571;47.512;19.054;2022-10-23T05:22:08;36.20;;;20.37;;
75890;SDS011;64571;47.512;19.054;2022-10-23T05:25:16;34.65;;;18.92;;
75890;SDS011;64571;47.512;19.054;2022-10-23T05:28:19;36.53;;;20.05;;
75890;SDS011;64571;47.512;19.054;2022-10-23T05:31:21;33.03;;;19.27;;
75890;SDS011;64571;47.512;19.054;2022-10-23T05:34:29;32.97;;;19.52;;
75890;SDS011;64571;47.512;19.054;2022-10-23T05:37:36;31.48;;;19.15;;
75890;SDS011;64571;47.512;19.054;2022-10-23T05:40:40;32.95;;;17.87;;
75890;SDS011;64571;47.512;19.054;2022-10-23T05:43:47;30.35;;;17.83;;
75890;SDS011;64571;47.512;19.054;2022-10-23T05:46:50;30.07;;;19.10;;
75890;SDS011;64571;47.512;19.054;2022-10-23T05:49:53;29.60;;;18.12;;
75890;SDS011;64571;47.512;19.054;2022-10-23T05:52:56;28.65;;;18.37;;
75890;SDS011;64571;47.512;19.054;2022-10-23T05:56:03;28.83;;;17.52;;
75890;SDS011;64571;47.512;19.054;2022-10-23T05:59:08;29.75;;;17.85;;
75890;SDS011;64571;47.512;19.054;2022-10-23T06:02:13;30.60;;;17.57;;
75890;SDS011;64571;47.512;19.054;2022-10-23T06:05:16;30.60;;;17.80;;
75890;SDS011;64571;47.512;19.054;2022-10-23T06:08:19;29.15;;;18.33;;
75890;SDS011;64571;47.512;19.054;2022-10-23T06:11:22;29.73;;;17.20;;
75890;SDS011;64571;47.512;19.054;2022-10-23T06:14:25;29.65;;;17.98;;
75890;SDS011;64571;47.512;19.054;2022-10-23T06:17:28;29.00;;;17.13;;
75890;SDS011;64571;47.512;19.054;2022-10-23T06:20:30;29.12;;;18.08;;
75890;SDS011;64571;47.512;19.054;2022-10-23T06:23:37;28.15;;;17.40;;
75890;SDS011;64571;47.512;19.054;2022-10-23T06:26:41;28.87;;;18.27;;
75890;SDS011;64571;47.512;19.054;2022-10-23T06:29:44;30.60;;;18.42;;
75890;SDS011;64571;47.512;19.054;2022-10-23T06:32:46;30.77;;;18.57;;
75890;SDS011;64571;47.512;19.054;2022-10-23T06:35:49;33.15;;;18.67;;
75890;SDS011;64571;47.512;19.054;2022-10-23T06:38:51;29.35;;;18.87;;
75890;SDS011;64571;47.512;19.054;2022-10-23T06:41:55;28.35;;;18.75;;
75890;SDS011;64571;47.512;19.054;2022-10-23T06:45:07;30.25;;;18.95;;
75890;SDS011;64571;47.512;19.054;2022-10-23T06:48:12;33.07;;;20.27;;
75890;SDS011;64571;47.512;19.054;2022-10-23T06:51:16;33.25;;;20.20;;
75890;SDS011;64571;47.512;19.054;2022-10-23T06:54:19;33.00;;;20.33;;
75890;SDS011;64571;47.512;19.054;2022-10-23T06:57:25;33.08;;;19.62;;
75890;SDS011;64571;47.512;19.054;2022-10-23T07:00:27;30.62;;;19.27;;
75890;SDS011;64571;47.512;19.054;2022-10-23T07:03:30;30.57;;;19.60;;
75890;SDS011;64571;47.512;19.054;2022-10-23T07:06:35;33.60;;;20.85;;
75890;SDS011;64571;47.512;19.054;2022-10-23T07:09:38;31.23;;;20.05;;
75890;SDS011;64571;47.512;19.054;2022-10-23T07:12:44;29.75;;;18.55;;
75890;SDS011;64571;47.512;19.054;2022-10-23T07:15:53;33.53;;;19.58;;
75890;SDS011;64571;47.512;19.054;2022-10-23T07:18:56;28.40;;;17.60;;
75890;SDS011;64571;47.512;19.054;2022-10-23T07:22:04;30.77;;;18.37;;
75890;SDS011;64571;47.512;19.054;2022-10-23T07:25:07;28.52;;;18.20;;
75890;SDS011;64571;47.512;19.054;2022-10-23T07:28:10;30.58;;;18.12;;
75890;SDS011;64571;47.512;19.054;2022-10-23T07:31:12;28.17;;;19.40;;
75890;SDS011;64571;47.512;19.054;2022-10-23T07:34:16;27.70;;;19.07;;
75890;SDS011;64571;47.512;19.054;2022-10-23T07:37:19;28.15;;;18.60;;
75890;SDS011;64571;47.512;19.054;2022-10-23T07:40:22;27.40;;;17.85;;
75890;SDS011;64571;47.512;19.054;2022-10-23T07:43:25;24.70;;;16.80;;
75890;SDS011;64571;47.512;19.054;2022-10-23T07:46:28;24.83;;;17.15;;
75890;SDS011;64571;47.512;19.054;2022-10-23T07:49:30;27.60;;;18.27;;
75890;SDS011;64571;47.512;19.054;2022-10-23T07:52:33;28.23;;;17.40;;
75890;SDS011;64571;47.512;19.054;2022-10-23T07:55:39;26.52;;;17.02;;
75890;SDS011;64571;47.512;19.054;2022-10-23T07:58:42;23.65;;;16.33;;
75890;SDS011;64571;47.512;19.054;2022-10-23T08:01:45;24.73;;;16.40;;
75890;SDS011;64571;47.512;19.054;2022-10-23T08:04:54;23.60;;;16.73;;
75890;SDS011;64571;47.512;19.054;2022-10-23T08:07:57;24.63;;;15.75;;
75890;SDS011;64571;47.512;19.054;2022-10-23T08:10:59;25.35;;;17.05;;
75890;SDS011;64571;47.512;19.054;2022-10-23T08:14:03;23.98;;;16.70;;
75890;SDS011;64571;47.512;19.054;2022-10-23T08:17:07;24.70;;;16.80;;
75890;SDS011;64571;47.512;19.054;2022-10-23T08:20:16;24.03;;;16.10;;
75890;SDS011;64571;47.512;19.054;2022-10-23T08:23:19;23.35;;;15.68;;
75890;SDS011;64571;47.512;19.054;2022-10-23T08:26:22;23.52;;;16.10;;
75890;SDS011;64571;47.512;19.054;2022-10-23T08:29:26;20.65;;;14.77;;
75890;SDS011;64571;47.512;19.054;2022-10-23T08:32:29;21.20;;;14.43;;
75890;SDS011;64571;47.512;19.054;2022-10-23T08:35:38;21.60;;;14.93;;
75890;SDS011;64571;47.512;19.054;2022-10-23T08:38:40;20.52;;;14.32;;
75890;SDS011;64571;47.512;19.054;2022-10-23T08:41:48;22.55;;;14.45;;
75890;SDS011;64571;47.512;19.054;2022-10-23T08:48:12;22.50;;;14.73;;
75890;SDS011;64571;47.512;19.054;2022-10-23T08:51:28;21.00;;;13.87;;
75890;SDS011;64571;47.512;19.054;2022-10-23T08:58:21;19.45;;;13.05;;
75890;SDS011;64571;47.512;19.054;2022-10-23T09:04:39;17.25;;;11.30;;
75890;SDS011;64571;47.512;19.054;2022-10-23T09:08:47;18.67;;;11.67;;
75890;SDS011;64571;47.512;19.054;2022-10-23T09:15:18;17.87;;;11.60;;
75890;SDS011;64571;47.512;19.054;2022-10-23T09:18:14;17.70;;;11.35;;
75890;SDS011;64571;47.512;19.054;2022-10-23T09:21:17;24.08;;;16.23;;
75890;SDS011;64571;47.512;19.054;2022-10-23T09:24:20;16.17;;;10.80;;
75890;SDS011;64571;47.512;19.054;2022-10-23T09:27:24;16.37;;;11.63;;
75890;SDS011;64571;47.512;19.054;2022-10-23T09:30:29;16.52;;;11.38;;
75890;SDS011;64571;47.512;19.054;2022-10-23T09:33:40;15.13;;;10.43;;
75890;SDS011;64571;47.512;19.054;2022-10-23T09:36:47;16.50;;;11.77;;
75890;SDS011;64571;47.512;19.054;2022-10-23T09:43:20;20.70;;;12.32;;
75890;SDS011;64571;47.512;19.054;2022-10-23T09:46:46;17.58;;;12.32;;
75890;SDS011;64571;47.512;19.054;2022-10-23T09:49:53;16.45;;;12.00;;
75890;SDS011;64571;47.512;19.054;2022-10-23T09:52:56;19.20;;;12.60;;
75890;SDS011;64571;47.512;19.054;2022-10-23T09:56:00;17.70;;;11.97;;
75890;SDS011;64571;47.512;19.054;2022-10-23T10:02:25;20.65;;;13.52;;
75890;SDS011;64571;47.512;19.054;2022-10-23T10:05:33;20.12;;;14.18;;
75890;SDS011;64571;47.512;19.054;2022-10-23T10:08:48;22.30;;;13.95;;
75890;SDS011;64571;47.512;19.054;2022-10-23T10:11:55;17.37;;;12.03;;
75890;SDS011;64571;47.512;19.054;2022-10-23T10:15:10;17.27;;;11.50;;
75890;SDS011;64571;47.512;19.054;2022-10-23T10:38:49;19.35;;;12.40;;
75890;SDS011;64571;47.512;19.054;2022-10-23T10:45:28;23.20;;;13.63;;
75890;SDS011;64571;47.512;19.054;2022-10-23T11:05:45;32.22;;;17.05;;
75890;SDS011;64571;47.512;19.054;2022-10-23T11:08:52;32.13;;;19.15;;
75890;SDS011;64571;47.512;19.054;2022-10-23T11:12:16;36.15;;;18.05;;
75890;SDS011;64571;47.512;19.054;2022-10-23T11:15:23;32.78;;;18.50;;
75890;SDS011;64571;47.512;19.054;2022-10-23T11:18:30;34.27;;;18.10;;
75890;SDS011;64571;47.512;19.054;2022-10-23T11:35:19;31.03;;;18.53;;
75890;SDS011;64571;47.512;19.054;2022-10-23T11:38:27;32.03;;;19.08;;
75890;SDS011;64571;47.512;19.054;2022-10-23T11:41:32;29.45;;;17.48;;
75890;SDS011;64571;47.512;19.054;2022-10-23T11:44:40;24.70;;;16.52;;
75890;SDS011;64571;47.512;19.054;2022-10-23T11:47:54;30.77;;;17.12;;
75890;SDS011;64571;47.512;19.054;2022-10-23T11:51:01;24.23;;;15.23;;
75890;SDS011;64571;47.512;19.054;2022-10-23T11:57:17;21.75;;;15.55;;
75890;SDS011;64571;47.512;19.054;2022-10-23T12:00:20;20.52;;;14.43;;
75890;SDS011;64571;47.512;19.054;2022-10-23T12:03:31;23.80;;;14.50;;
75890;SDS011;64571;47.512;19.054;2022-10-23T12:06:42;21.03;;;14.43;;
75890;SDS011;64571;47.512;19.054;2022-10-23T12:10:01;21.70;;;14.23;;
75890;SDS011;64571;47.512;19.054;2022-10-23T12:13:25;19.65;;;14.18;;
75890;SDS011;64571;47.512;19.054;2022-10-23T12:16:38;21.80;;;13.73;;
75890;SDS011;64571;47.512;19.054;2022-10-23T12:19:44;20.40;;;14.27;;
75890;SDS011;64571;47.512;19.054;2022-10-23T12:32:56;24.00;;;14.60;;
75890;SDS011;64571;47.512;19.054;2022-10-23T12:36:21;23.55;;;16.05;;
75890;SDS011;64571;47.512;19.054;2022-10-23T12:39:38;24.27;;;15.07;;
75890;SDS011;64571;47.512;19.054;2022-10-23T12:42:48;25.88;;;14.55;;
75890;SDS011;64571;47.512;19.054;2022-10-23T12:45:54;23.33;;;14.52;;
75890;SDS011;64571;47.512;19.054;2022-10-23T12:48:58;20.60;;;12.85;;
75890;SDS011;64571;47.512;19.054;2022-10-23T12:52:03;19.08;;;12.55;;
75890;SDS011;64571;47.512;19.054;2022-10-23T12:55:11;19.07;;;12.30;;
75890;SDS011;64571;47.512;19.054;2022-10-23T12:58:22;20.48;;;12.93;;
75890;SDS011;64571;47.512;19.054;2022-10-23T13:01:31;18.83;;;12.25;;
75890;SDS011;64571;47.512;19.054;2022-10-23T13:04:34;16.75;;;11.12;;
75890;SDS011;64571;47.512;19.054;2022-10-23T13:07:41;16.48;;;11.35;;
75890;SDS011;64571;47.512;19.054;2022-10-23T13:10:47;18.57;;;11.90;;
75890;SDS011;64571;47.512;19.054;2022-10-23T13:13:51;17.17;;;11.68;;
75890;SDS011;64571;47.512;19.054;2022-10-23T13:16:58;15.82;;;11.82;;
75890;SDS011;64571;47.512;19.054;2022-10-23T13:20:36;17.12;;;11.15;;
75890;SDS011;64571;47.512;19.054;2022-10-23T13:23:32;16.10;;;11.95;;
75890;SDS011;64571;47.512;19.054;2022-10-23T13:26:37;17.13;;;11.50;;
75890;SDS011;64571;47.512;19.054;2022-10-23T13:29:46;19.67;;;11.93;;
75890;SDS011;64571;47.512;19.054;2022-10-23T13:32:48;16.60;;;12.57;;
75890;SDS011;64571;47.512;19.054;2022-10-23T13:35:58;18.17;;;12.57;;
75890;SDS011;64571;47.512;19.054;2022-10-23T13:39:22;16.83;;;12.40;;
75890;SDS011;64571;47.512;19.054;2022-10-23T13:42:35;17.27;;;11.40;;
75890;SDS011;64571;47.512;19.054;2022-10-23T13:45:39;17.10;;;11.73;;
75890;SDS011;64571;47.512;19.054;2022-10-23T13:48:42;16.17;;;10.95;;
75890;SDS011;64571;47.512;19.054;2022-10-23T13:51:47;15.57;;;10.25;;
75890;SDS011;64571;47.512;19.054;2022-10-23T13:54:54;14.43;;;10.43;;
75890;SDS011;64571;47.512;19.054;2022-10-23T13:57:57;14.60;;;10.23;;
75890;SDS011;64571;47.512;19.054;2022-10-23T14:00:59;17.37;;;10.35;;
75890;SDS011;64571;47.512;19.054;2022-10-23T14:04:02;17.10;;;12.45;;
75890;SDS011;64571;47.512;19.054;2022-10-23T14:07:06;14.70;;;10.38;;
75890;SDS011;64571;47.512;19.054;2022-10-23T14:10:08;16.75;;;11.12;;
75890;SDS011;64571;47.512;19.054;2022-10-23T14:13:11;18.03;;;10.60;;
75890;SDS011;64571;47.512;19.054;2022-10-23T14:16:14;22.35;;;14.80;;
75890;SDS011;64571;47.512;19.054;2022-10-23T14:19:18;19.33;;;13.48;;
75890;SDS011;64571;47.512;19.054;2022-10-23T14:22:21;19.33;;;10.90;;
75890;SDS011;64571;47.512;19.054;2022-10-23T14:25:23;16.98;;;10.30;;
75890;SDS011;64571;47.512;19.054;2022-10-23T14:28:26;16.30;;;10.67;;
75890;SDS011;64571;47.512;19.054;2022-10-23T14:31:28;18.92;;;10.93;;
75890;SDS011;64571;47.512;19.054;2022-10-23T14:34:30;17.02;;;11.38;;
75890;SDS011;64571;47.512;19.054;2022-10-23T14:37:33;18.98;;;11.02;;
75890;SDS011;64571;47.512;19.054;2022-10-23T14:40:36;16.70;;;11.48;;
75890;SDS011;64571;47.512;19.054;2022-10-23T14:43:39;17.53;;;11.30;;
75890;SDS011;64571;47.512;19.054;2022-10-23T14:46:44;18.83;;;11.80;;
75890;SDS011;64571;47.512;19.054;2022-10-23T14:49:47;17.42;;;12.10;;
75890;SDS011;64571;47.512;19.054;2022-10-23T14:52:53;19.05;;;11.98;;
75890;SDS011;64571;47.512;19.054;2022-10-23T14:56:02;16.00;;;10.35;;
75890;SDS011;64571;47.512;19.054;2022-10-23T14:59:05;18.60;;;11.47;;
75890;SDS011;64571;47.512;19.054;2022-10-23T15:02:09;18.48;;;11.38;;
75890;SDS011;64571;47.512;19.054;2022-10-23T15:05:13;17.65;;;11.35;;
75890;SDS011;64571;47.512;19.054;2022-10-23T15:08:15;16.87;;;10.55;;
75890;SDS011;64571;47.512;19.054;2022-10-23T15:11:18;18.12;;;11.90;;
75890;SDS011;64571;47.512;19.054;2022-10-23T15:14:20;16.80;;;12.07;;
75890;SDS011;64571;47.512;19.054;2022-10-23T15:17:22;22.95;;;12.65;;
75890;SDS011;64571;47.512;19.054;2022-10-23T15:20:25;21.48;;;12.15;;
75890;SDS011;64571;47.512;19.054;2022-10-23T15:23:27;18.62;;;11.32;;
75890;SDS011;64571;47.512;19.054;2022-10-23T15:26:30;18.60;;;11.43;;
75890;SDS011;64571;47.512;19.054;2022-10-23T15:29:32;20.13;;;11.37;;
75890;SDS011;64571;47.512;19.054;2022-10-23T15:32:35;16.98;;;11.55;;
75890;SDS011;64571;47.512;19.054;2022-10-23T15:35:38;19.58;;;13.18;;
75890;SDS011;64571;47.512;19.054;2022-10-23T15:38:40;19.20;;;11.40;;
75890;SDS011;64571;47.512;19.054;2022-10-23T15:41:43;22.87;;;12.13;;
75890;SDS011;64571;47.512;19.054;2022-10-23T15:44:45;20.35;;;11.95;;
75890;SDS011;64571;47.512;19.054;2022-10-23T15:47:51;20.05;;;12.45;;
75890;SDS011;64571;47.512;19.054;2022-10-23T15:50:54;18.60;;;11.60;;
75890;SDS011;64571;47.512;19.054;2022-10-23T15:53:56;20.42;;;11.90;;
75890;SDS011;64571;47.512;19.054;2022-10-23T15:56:59;22.63;;;12.43;;
75890;SDS011;64571;47.512;19.054;2022-10-23T16:00:03;20.35;;;10.90;;
75890;SDS011;64571;47.512;19.054;2022-10-23T16:03:09;25.80;;;18.10;;
75890;SDS011;64571;47.512;19.054;2022-10-23T16:06:13;20.73;;;12.32;;
75890;SDS011;64571;47.512;19.054;2022-10-23T16:09:16;20.25;;;13.07;;
75890;SDS011;64571;47.512;19.054;2022-10-23T16:12:19;22.43;;;12.37;;
75890;SDS011;64571;47.512;19.054;2022-10-23T16:15:21;21.90;;;13.27;;
75890;SDS011;64571;47.512;19.054;2022-10-23T16:18:24;19.15;;;12.32;;
75890;SDS011;64571;47.512;19.054;2022-10-23T16:21:27;19.08;;;11.93;;
75890;SDS011;64571;47.512;19.054;2022-10-23T16:24:32;18.25;;;11.95;;
75890;SDS011;64571;47.512;19.054;2022-10-23T16:27:35;20.23;;;9.90;;
75890;SDS011;64571;47.512;19.054;2022-10-23T16:30:41;17.58;;;10.63;;
75890;SDS011;64571;47.512;19.054;2022-10-23T16:33:44;18.62;;;10.48;;
75890;SDS011;64571;47.512;19.054;2022-10-23T16:36:47;16.15;;;10.60;;
75890;SDS011;64571;47.512;19.054;2022-10-23T16:39:51;22.25;;;11.32;;
75890;SDS011;64571;47.512;19.054;2022-10-23T16:42:57;13.60;;;7.90;;
75890;SDS011;64571;47.512;19.054;2022-10-23T16:49:03;11.88;;;6.68;;
75890;SDS011;64571;47.512;19.054;2022-10-23T16:52:06;10.27;;;5.53;;
75890;SDS011;64571;47.512;19.054;2022-10-23T16:55:09;12.18;;;6.15;;
75890;SDS011;64571;47.512;19.054;2022-10-23T16:58:12;11.43;;;5.63;;
75890;SDS011;64571;47.512;19.054;2022-10-23T17:01:16;11.55;;;5.60;;
75890;SDS011;64571;47.512;19.054;2022-10-23T17:04:20;8.73;;;5.10;;
75890;SDS011;64571;47.512;19.054;2022-10-23T17:07:23;7.47;;;4.18;;
75890;SDS011;64571;47.512;19.054;2022-10-23T17:10:25;8.23;;;4.18;;
75890;SDS011;64571;47.512;19.054;2022-10-23T17:13:28;9.43;;;4.40;;
75890;SDS011;64571;47.512;19.054;2022-10-23T17:16:41;7.75;;;3.72;;
75890;SDS011;64571;47.512;19.054;2022-10-23T17:19:46;10.68;;;4.18;;
75890;SDS011;64571;47.512;19.054;2022-10-23T17:22:49;7.97;;;4.20;;
75890;SDS011;64571;47.512;19.054;2022-10-23T17:25:51;7.22;;;4.07;;
75890;SDS011;64571;47.512;19.054;2022-10-23T17:28:57;8.10;;;4.30;;
75890;SDS011;64571;47.512;19.054;2022-10-23T17:32:01;7.80;;;4.43;;
75890;SDS011;64571;47.512;19.054;2022-10-23T17:35:06;7.70;;;4.20;;
75890;SDS011;64571;47.512;19.054;2022-10-23T17:38:09;8.18;;;4.40;;
75890;SDS011;64571;47.512;19.054;2022-10-23T17:41:14;8.45;;;5.05;;
75890;SDS011;64571;47.512;19.054;2022-10-23T17:44:17;8.07;;;4.47;;
75890;SDS011;64571;47.512;19.054;2022-10-23T17:47:20;9.57;;;4.60;;
75890;SDS011;64571;47.512;19.054;2022-10-23T17:50:22;10.48;;;5.62;;
75890;SDS011;64571;47.512;19.054;2022-10-23T17:53:24;10.30;;;5.55;;
75890;SDS011;64571;47.512;19.054;2022-10-23T17:56:28;11.77;;;5.50;;
75890;SDS011;64571;47.512;19.054;2022-10-23T17:59:31;9.53;;;5.07;;
75890;SDS011;64571;47.512;19.054;2022-10-23T18:02:34;10.25;;;5.40;;
75890;SDS011;64571;47.512;19.054;2022-10-23T18:05:37;9.68;;;5.53;;
75890;SDS011;64571;47.512;19.054;2022-10-23T18:08:40;11.80;;;6.25;;
75890;SDS011;64571;47.512;19.054;2022-10-23T18:11:44;10.13;;;5.85;;
75890;SDS011;64571;47.512;19.054;2022-10-23T18:14:49;9.53;;;5.50;;
75890;SDS011;64571;47.512;19.054;2022-10-23T18:17:52;9.95;;;5.82;;
75890;SDS011;64571;47.512;19.054;2022-10-23T18:20:57;9.85;;;6.45;;
75890;SDS011;64571;47.512;19.054;2022-10-23T18:24:00;9.02;;;5.00;;
75890;SDS011;64571;47.512;19.054;2022-10-23T18:27:03;11.52;;;6.28;;
75890;SDS011;64571;47.512;19.054;2022-10-23T18:30:06;10.57;;;6.60;;
75890;SDS011;64571;47.512;19.054;2022-10-23T18:33:08;11.98;;;6.55;;
75890;SDS011;64571;47.512;19.054;2022-10-23T18:36:18;11.68;;;6.30;;
75890;SDS011;64571;47.512;19.054;2022-10-23T18:39:24;11.57;;;6.20;;
75890;SDS011;64571;47.512;19.054;2022-10-23T18:42:27;12.75;;;6.57;;
75890;SDS011;64571;47.512;19.054;2022-10-23T18:45:29;11.70;;;6.20;;
75890;SDS011;64571;47.512;19.054;2022-10-23T18:48:32;10.50;;;6.18;;
75890;SDS011;64571;47.512;19.054;2022-10-23T18:51:36;11.07;;;6.53;;
75890;SDS011;64571;47.512;19.054;2022-10-23T18:54:39;9.32;;;6.18;;
75890;SDS011;64571;47.512;19.054;2022-10-23T18:57:41;10.07;;;6.25;;
75890;SDS011;64571;47.512;19.054;2022-10-23T19:00:44;11.47;;;6.43;;
75890;SDS011;64571;47.512;19.054;2022-10-23T19:03:47;14.02;;;7.60;;
75890;SDS011;64571;47.512;19.054;2022-10-23T19:06:51;13.23;;;7.22;;
75890;SDS011;64571;47.512;19.054;2022-10-23T19:09:53;11.98;;;6.57;;
75890;SDS011;64571;47.512;19.054;2022-10-23T19:12:56;15.18;;;7.00;;
75890;SDS011;64571;47.512;19.054;2022-10-23T19:15:58;12.30;;;7.27;;
75890;SDS011;64571;47.512;19.054;2022-10-23T19:19:20;12.48;;;7.82;;
75890;SDS011;64571;47.512;19.054;2022-10-23T19:22:26;13.27;;;7.18;;
75890;SDS011;64571;47.512;19.054;2022-10-23T19:25:32;13.45;;;7.62;;
75890;SDS011;64571;47.512;19.054;2022-10-23T19:28:36;12.32;;;7.20;;
75890;SDS011;64571;47.512;19.054;2022-10-23T19:31:45;14.20;;;7.70;;
75890;SDS011;64571;47.512;19.054;2022-10-23T19:34:50;13.85;;;7.93;;
75890;SDS011;64571;47.512;19.054;2022-10-23T19:37:52;13.20;;;7.47;;
75890;SDS011;64571;47.512;19.054;2022-10-23T19:40:55;13.90;;;8.30;;
75890;SDS011;64571;47.512;19.054;2022-10-23T19:43:58;13.15;;;7.82;;